sensor_id;sensor_type;location;lat;lon;timestamp;pressure;altitude;pressure_sealevel;temperature;humidity
45991;BME280;31721;41.740;-88.000;2023-09-19T00:00:19;98999.78;;;19.52;46.61
45991;BME280;31721;41.740;-88.000;2023-09-19T00:02:53;98998.66;;;19.45;46.62
45991;BME280;31721;41.740;-88.000;2023-09-19T00:05:21;99000.97;;;19.37;46.80
45991;BME280;31721;41.740;-88.000;2023-09-19T00:07:49;99000.80;;;19.30;47.13
45991;BME280;31721;41.740;-88.000;2023-09-19T00:10:16;99003.11;;;19.23;47.25
45991;BME280;31721;41.740;-88.000;2023-09-19T00:12:44;99005.06;;;19.16;47.31
45991;BME280;31721;41.740;-88.000;2023-09-19T00:15:12;99005.20;;;19.23;47.41
45991;BME280;31721;41.740;-88.000;2023-09-19T00:17:40;99006.95;;;19.10;47.36
45991;BME280;31721;41.740;-88.000;2023-09-19T00:20:08;99006.07;;;19.10;47.28
45991;BME280;31721;41.740;-88.000;2023-09-19T00:22:40;99008.87;;;18.88;47.59
45991;BME280;31721;41.740;-88.000;2023-09-19T00:25:08;99009.93;;;18.95;47.64
45991;BME280;31721;41.740;-88.000;2023-09-19T00:27:36;99014.67;;;18.78;47.66
45991;BME280;31721;41.740;-88.000;2023-09-19T00:30:05;99019.90;;;18.81;47.89
45991;BME280;31721;41.740;-88.000;2023-09-19T00:32:34;99021.59;;;18.77;48.21
45991;BME280;31721;41.740;-88.000;2023-09-19T00:35:01;99025.31;;;18.66;48.36
45991;BME280;31721;41.740;-88.000;2023-09-19T00:37:29;99023.71;;;18.65;48.25
45991;BME280;31721;41.740;-88.000;2023-09-19T00:39:57;99025.97;;;18.59;48.34
45991;BME280;31721;41.740;-88.000;2023-09-19T00:42:25;99024.68;;;18.54;48.41
45991;BME280;31721;41.740;-88.000;2023-09-19T00:44:52;99024.05;;;18.47;48.45
45991;BME280;31721;41.740;-88.000;2023-09-19T00:47:21;99027.99;;;18.42;48.57
45991;BME280;31721;41.740;-88.000;2023-09-19T00:49:48;99029.64;;;18.43;48.64
45991;BME280;31721;41.740;-88.000;2023-09-19T00:52:16;99030.40;;;18.30;48.85
45991;BME280;31721;41.740;-88.000;2023-09-19T00:54:46;99031.23;;;18.23;48.83
45991;BME280;31721;41.740;-88.000;2023-09-19T00:57:14;99032.45;;;18.12;48.85
45991;BME280;31721;41.740;-88.000;2023-09-19T00:59:42;99032.11;;;18.07;49.06
45991;BME280;31721;41.740;-88.000;2023-09-19T01:02:09;99035.45;;;18.10;49.12
45991;BME280;31721;41.740;-88.000;2023-09-19T01:04:37;99037.94;;;18.03;49.29
45991;BME280;31721;41.740;-88.000;2023-09-19T01:07:07;99038.32;;;17.86;49.37
45991;BME280;31721;41.740;-88.000;2023-09-19T01:09:35;99039.06;;;17.88;49.61
45991;BME280;31721;41.740;-88.000;2023-09-19T01:12:05;99039.16;;;17.89;49.71
45991;BME280;31721;41.740;-88.000;2023-09-19T01:14:41;99036.04;;;17.83;49.78
45991;BME280;31721;41.740;-88.000;2023-09-19T01:17:14;99036.10;;;17.70;50.17
45991;BME280;31721;41.740;-88.000;2023-09-19T01:20:21;99038.70;;;17.75;50.06
45991;BME280;31721;41.740;-88.000;2023-09-19T01:23:00;99040.22;;;17.70;50.29
45991;BME280;31721;41.740;-88.000;2023-09-19T01:26:07;99042.67;;;17.63;50.37
45991;BME280;31721;41.740;-88.000;2023-09-19T01:28:53;99044.77;;;17.56;50.65
45991;BME280;31721;41.740;-88.000;2023-09-19T01:31:22;99047.32;;;17.50;50.60
45991;BME280;31721;41.740;-88.000;2023-09-19T01:33:59;99042.18;;;17.46;50.57
45991;BME280;31721;41.740;-88.000;2023-09-19T01:36:28;99043.24;;;17.39;50.58
45991;BME280;31721;41.740;-88.000;2023-09-19T01:38:58;99049.89;;;17.36;50.65
45991;BME280;31721;41.740;-88.000;2023-09-19T01:41:33;99050.39;;;17.32;50.83
45991;BME280;31721;41.740;-88.000;2023-09-19T01:44:11;99048.68;;;17.29;51.11
45991;BME280;31721;41.740;-88.000;2023-09-19T01:46:42;99052.42;;;17.29;51.21
45991;BME280;31721;41.740;-88.000;2023-09-19T01:49:24;99051.12;;;17.22;51.04
45991;BME280;31721;41.740;-88.000;2023-09-19T01:52:02;99046.44;;;17.15;51.38
45991;BME280;31721;41.740;-88.000;2023-09-19T01:54:40;99047.91;;;17.12;51.42
45991;BME280;31721;41.740;-88.000;2023-09-19T01:57:13;99044.74;;;17.16;51.44
45991;BME280;31721;41.740;-88.000;2023-09-19T01:59:47;99045.74;;;17.04;51.67
45991;BME280;31721;41.740;-88.000;2023-09-19T02:02:17;99048.28;;;17.00;51.77
45991;BME280;31721;41.740;-88.000;2023-09-19T02:04:48;99048.56;;;17.05;51.72
45991;BME280;31721;41.740;-88.000;2023-09-19T02:07:16;99049.34;;;17.01;51.79
45991;BME280;31721;41.740;-88.000;2023-09-19T02:09:44;99049.21;;;16.97;52.19
45991;BME280;31721;41.740;-88.000;2023-09-19T02:12:11;99051.21;;;16.89;52.06
45991;BME280;31721;41.740;-88.000;2023-09-19T02:14:39;99052.47;;;16.93;52.08
45991;BME280;31721;41.740;-88.000;2023-09-19T02:17:07;99053.43;;;16.98;52.25
45991;BME280;31721;41.740;-88.000;2023-09-19T02:19:35;99052.51;;;16.81;52.27
45991;BME280;31721;41.740;-88.000;2023-09-19T02:22:03;99051.97;;;16.93;52.57
45991;BME280;31721;41.740;-88.000;2023-09-19T02:24:31;99053.33;;;16.84;52.58
45991;BME280;31721;41.740;-88.000;2023-09-19T02:26:59;99052.51;;;16.71;52.48
45991;BME280;31721;41.740;-88.000;2023-09-19T02:29:27;99049.70;;;16.69;52.67
45991;BME280;31721;41.740;-88.000;2023-09-19T02:31:54;99048.15;;;16.75;52.74
45991;BME280;31721;41.740;-88.000;2023-09-19T02:34:22;99050.44;;;16.72;52.63
45991;BME280;31721;41.740;-88.000;2023-09-19T02:36:50;99049.66;;;16.67;52.73
45991;BME280;31721;41.740;-88.000;2023-09-19T02:39:18;99047.60;;;16.63;52.92
45991;BME280;31721;41.740;-88.000;2023-09-19T02:41:46;99047.21;;;16.53;52.95
45991;BME280;31721;41.740;-88.000;2023-09-19T02:44:13;99046.77;;;16.51;53.18
45991;BME280;31721;41.740;-88.000;2023-09-19T02:46:41;99050.52;;;16.49;52.94
45991;BME280;31721;41.740;-88.000;2023-09-19T02:49:10;99052.05;;;16.61;53.07
45991;BME280;31721;41.740;-88.000;2023-09-19T02:51:37;99053.99;;;16.47;53.05
45991;BME280;31721;41.740;-88.000;2023-09-19T02:54:05;99054.19;;;16.51;53.30
45991;BME280;31721;41.740;-88.000;2023-09-19T02:56:33;99050.83;;;16.42;53.36
45991;BME280;31721;41.740;-88.000;2023-09-19T02:59:01;99052.04;;;16.39;53.25
45991;BME280;31721;41.740;-88.000;2023-09-19T03:01:29;99053.64;;;16.37;53.37
45991;BME280;31721;41.740;-88.000;2023-09-19T03:03:57;99055.93;;;16.40;53.48
45991;BME280;31721;41.740;-88.000;2023-09-19T03:06:24;99055.13;;;16.30;53.60
45991;BME280;31721;41.740;-88.000;2023-09-19T03:08:53;99056.85;;;16.37;53.76
45991;BME280;31721;41.740;-88.000;2023-09-19T03:11:21;99059.71;;;16.36;53.71
45991;BME280;31721;41.740;-88.000;2023-09-19T03:13:52;99061.07;;;16.32;53.81
45991;BME280;31721;41.740;-88.000;2023-09-19T03:16:20;99064.24;;;16.30;53.94
45991;BME280;31721;41.740;-88.000;2023-09-19T03:18:48;99066.46;;;16.27;53.99
45991;BME280;31721;41.740;-88.000;2023-09-19T03:21:16;99070.93;;;16.15;54.02
45991;BME280;31721;41.740;-88.000;2023-09-19T03:23:43;99069.40;;;16.16;54.24
45991;BME280;31721;41.740;-88.000;2023-09-19T03:26:12;99070.43;;;16.06;54.25
45991;BME280;31721;41.740;-88.000;2023-09-19T03:28:40;99067.23;;;16.10;54.00
45991;BME280;31721;41.740;-88.000;2023-09-19T03:31:08;99066.98;;;16.05;54.14
45991;BME280;31721;41.740;-88.000;2023-09-19T03:33:36;99069.52;;;16.03;54.41
45991;BME280;31721;41.740;-88.000;2023-09-19T03:36:05;99071.40;;;16.08;54.45
45991;BME280;31721;41.740;-88.000;2023-09-19T03:38:33;99069.24;;;15.91;54.41
45991;BME280;31721;41.740;-88.000;2023-09-19T03:41:00;99066.78;;;15.95;54.73
45991;BME280;31721;41.740;-88.000;2023-09-19T03:43:29;99067.98;;;15.94;54.89
45991;BME280;31721;41.740;-88.000;2023-09-19T03:45:57;99067.09;;;15.93;54.96
45991;BME280;31721;41.740;-88.000;2023-09-19T03:48:28;99070.43;;;15.90;54.95
45991;BME280;31721;41.740;-88.000;2023-09-19T03:50:55;99072.98;;;15.87;54.97
45991;BME280;31721;41.740;-88.000;2023-09-19T03:53:23;99072.74;;;15.87;55.20
45991;BME280;31721;41.740;-88.000;2023-09-19T03:55:51;99072.42;;;15.86;55.10
45991;BME280;31721;41.740;-88.000;2023-09-19T03:58:19;99070.68;;;15.83;54.97
45991;BME280;31721;41.740;-88.000;2023-09-19T04:00:47;99068.58;;;15.90;55.12
45991;BME280;31721;41.740;-88.000;2023-09-19T04:03:15;99067.24;;;15.79;55.08
45991;BME280;31721;41.740;-88.000;2023-09-19T04:05:43;99067.27;;;15.76;55.15
45991;BME280;31721;41.740;-88.000;2023-09-19T04:08:11;99067.54;;;15.75;55.01
45991;BME280;31721;41.740;-88.000;2023-09-19T04:10:39;99066.26;;;15.79;55.19
45991;BME280;31721;41.740;-88.000;2023-09-19T04:13:07;99070.47;;;15.70;55.26
45991;BME280;31721;41.740;-88.000;2023-09-19T04:15:34;99070.93;;;15.68;55.20
45991;BME280;31721;41.740;-88.000;2023-09-19T04:18:03;99072.06;;;15.67;55.50
45991;BME280;31721;41.740;-88.000;2023-09-19T04:20:31;99069.34;;;15.71;55.38
45991;BME280;31721;41.740;-88.000;2023-09-19T04:22:59;99065.92;;;15.70;55.35
45991;BME280;31721;41.740;-88.000;2023-09-19T04:25:27;99066.53;;;15.68;55.50
45991;BME280;31721;41.740;-88.000;2023-09-19T04:27:54;99063.66;;;15.63;55.62
45991;BME280;31721;41.740;-88.000;2023-09-19T04:30:22;99061.45;;;15.51;55.53
45991;BME280;31721;41.740;-88.000;2023-09-19T04:32:50;99066.45;;;15.52;55.54
45991;BME280;31721;41.740;-88.000;2023-09-19T04:35:18;99066.24;;;15.49;55.60
45991;BME280;31721;41.740;-88.000;2023-09-19T04:37:46;99066.38;;;15.47;55.61
45991;BME280;31721;41.740;-88.000;2023-09-19T04:40:14;99068.99;;;15.53;55.68
45991;BME280;31721;41.740;-88.000;2023-09-19T04:42:42;99073.76;;;15.43;55.66
45991;BME280;31721;41.740;-88.000;2023-09-19T04:45:11;99073.54;;;15.47;55.72
45991;BME280;31721;41.740;-88.000;2023-09-19T04:47:39;99070.89;;;15.45;55.68
45991;BME280;31721;41.740;-88.000;2023-09-19T04:50:09;99072.42;;;15.38;55.72
45991;BME280;31721;41.740;-88.000;2023-09-19T04:52:36;99067.02;;;15.41;55.70
45991;BME280;31721;41.740;-88.000;2023-09-19T04:55:05;99065.07;;;15.38;55.85
45991;BME280;31721;41.740;-88.000;2023-09-19T04:57:33;99065.54;;;15.35;55.87
45991;BME280;31721;41.740;-88.000;2023-09-19T05:00:01;99064.49;;;15.26;56.01
45991;BME280;31721;41.740;-88.000;2023-09-19T05:02:29;99063.32;;;15.32;55.99
45991;BME280;31721;41.740;-88.000;2023-09-19T05:04:57;99062.90;;;15.40;55.92
45991;BME280;31721;41.740;-88.000;2023-09-19T05:07:25;99060.70;;;15.29;55.94
45991;BME280;31721;41.740;-88.000;2023-09-19T05:09:53;99061.56;;;15.26;56.00
45991;BME280;31721;41.740;-88.000;2023-09-19T05:12:21;99060.36;;;15.25;56.17
45991;BME280;31721;41.740;-88.000;2023-09-19T05:14:49;99059.67;;;15.22;56.18
45991;BME280;31721;41.740;-88.000;2023-09-19T05:17:17;99064.75;;;15.29;56.19
45991;BME280;31721;41.740;-88.000;2023-09-19T05:19:45;99062.14;;;15.19;56.31
45991;BME280;31721;41.740;-88.000;2023-09-19T05:22:13;99061.74;;;15.18;56.43
45991;BME280;31721;41.740;-88.000;2023-09-19T05:24:41;99063.45;;;15.25;56.29
45991;BME280;31721;41.740;-88.000;2023-09-19T05:27:09;99060.13;;;15.16;56.36
45991;BME280;31721;41.740;-88.000;2023-09-19T05:29:37;99060.25;;;15.23;56.28
45991;BME280;31721;41.740;-88.000;2023-09-19T05:32:05;99063.67;;;15.15;56.29
45991;BME280;31721;41.740;-88.000;2023-09-19T05:34:32;99059.75;;;15.20;56.35
45991;BME280;31721;41.740;-88.000;2023-09-19T05:37:00;99058.17;;;15.08;56.33
45991;BME280;31721;41.740;-88.000;2023-09-19T05:39:28;99056.51;;;15.07;56.61
45991;BME280;31721;41.740;-88.000;2023-09-19T05:41:56;99053.99;;;15.03;56.39
45991;BME280;31721;41.740;-88.000;2023-09-19T05:44:24;99057.12;;;15.05;56.86
45991;BME280;31721;41.740;-88.000;2023-09-19T05:46:54;99053.08;;;15.04;56.67
45991;BME280;31721;41.740;-88.000;2023-09-19T05:49:21;99048.60;;;15.10;56.68
45991;BME280;31721;41.740;-88.000;2023-09-19T05:51:49;99049.87;;;15.02;56.89
45991;BME280;31721;41.740;-88.000;2023-09-19T05:54:17;99047.24;;;15.00;56.90
45991;BME280;31721;41.740;-88.000;2023-09-19T05:56:44;99046.65;;;15.10;57.03
45991;BME280;31721;41.740;-88.000;2023-09-19T05:59:12;99048.91;;;15.13;57.19
45991;BME280;31721;41.740;-88.000;2023-09-19T06:01:40;99055.05;;;15.12;57.07
45991;BME280;31721;41.740;-88.000;2023-09-19T06:04:08;99057.78;;;15.12;57.04
45991;BME280;31721;41.740;-88.000;2023-09-19T06:06:36;99059.14;;;15.11;57.19
45991;BME280;31721;41.740;-88.000;2023-09-19T06:09:04;99058.89;;;15.11;57.11
45991;BME280;31721;41.740;-88.000;2023-09-19T06:11:32;99062.46;;;15.02;57.06
45991;BME280;31721;41.740;-88.000;2023-09-19T06:14:00;99063.68;;;15.09;56.97
45991;BME280;31721;41.740;-88.000;2023-09-19T06:16:28;99065.19;;;15.07;57.09
45991;BME280;31721;41.740;-88.000;2023-09-19T06:18:56;99068.08;;;14.97;57.21
45991;BME280;31721;41.740;-88.000;2023-09-19T06:21:24;99072.86;;;15.06;56.94
45991;BME280;31721;41.740;-88.000;2023-09-19T06:23:51;99075.53;;;15.02;56.91
45991;BME280;31721;41.740;-88.000;2023-09-19T06:26:19;99083.67;;;15.01;56.93
45991;BME280;31721;41.740;-88.000;2023-09-19T06:28:47;99085.37;;;14.96;57.14
45991;BME280;31721;41.740;-88.000;2023-09-19T06:31:15;99085.54;;;14.96;57.14
45991;BME280;31721;41.740;-88.000;2023-09-19T06:33:43;99083.39;;;14.94;57.09
45991;BME280;31721;41.740;-88.000;2023-09-19T06:36:10;99084.67;;;14.95;57.05
45991;BME280;31721;41.740;-88.000;2023-09-19T06:38:38;99085.02;;;14.92;56.91
45991;BME280;31721;41.740;-88.000;2023-09-19T06:41:06;99085.72;;;14.91;57.07
45991;BME280;31721;41.740;-88.000;2023-09-19T06:43:35;99090.80;;;14.91;57.05
45991;BME280;31721;41.740;-88.000;2023-09-19T06:46:02;99090.99;;;14.88;57.07
45991;BME280;31721;41.740;-88.000;2023-09-19T06:48:30;99091.80;;;14.85;57.05
45991;BME280;31721;41.740;-88.000;2023-09-19T06:50:58;99096.01;;;14.84;57.17
45991;BME280;31721;41.740;-88.000;2023-09-19T06:53:26;99098.04;;;14.80;57.15
45991;BME280;31721;41.740;-88.000;2023-09-19T06:55:54;99100.12;;;14.79;57.26
45991;BME280;31721;41.740;-88.000;2023-09-19T06:58:22;99100.77;;;14.78;57.21
45991;BME280;31721;41.740;-88.000;2023-09-19T07:00:49;99096.55;;;14.75;57.22
45991;BME280;31721;41.740;-88.000;2023-09-19T07:03:17;99093.20;;;14.73;57.38
45991;BME280;31721;41.740;-88.000;2023-09-19T07:05:47;99089.97;;;14.71;57.54
45991;BME280;31721;41.740;-88.000;2023-09-19T07:08:16;99084.53;;;14.69;57.31
45991;BME280;31721;41.740;-88.000;2023-09-19T07:10:43;99076.22;;;14.58;57.30
45991;BME280;31721;41.740;-88.000;2023-09-19T07:13:11;99069.37;;;14.67;57.45
45991;BME280;31721;41.740;-88.000;2023-09-19T07:15:39;99063.76;;;14.66;57.58
45991;BME280;31721;41.740;-88.000;2023-09-19T07:18:07;99061.79;;;14.68;57.71
45991;BME280;31721;41.740;-88.000;2023-09-19T07:20:35;99061.47;;;14.84;57.64
45991;BME280;31721;41.740;-88.000;2023-09-19T07:23:03;99061.12;;;14.89;57.40
45991;BME280;31721;41.740;-88.000;2023-09-19T07:25:31;99062.33;;;14.74;57.53
45991;BME280;31721;41.740;-88.000;2023-09-19T07:27:59;99063.14;;;14.70;57.57
45991;BME280;31721;41.740;-88.000;2023-09-19T07:30:27;99064.29;;;14.70;57.61
45991;BME280;31721;41.740;-88.000;2023-09-19T07:32:55;99069.31;;;14.72;57.87
45991;BME280;31721;41.740;-88.000;2023-09-19T07:35:23;99070.04;;;14.74;57.77
45991;BME280;31721;41.740;-88.000;2023-09-19T07:37:51;99076.39;;;14.77;57.90
45991;BME280;31721;41.740;-88.000;2023-09-19T07:40:19;99077.94;;;14.78;58.07
45991;BME280;31721;41.740;-88.000;2023-09-19T07:42:46;99077.56;;;14.78;57.96
45991;BME280;31721;41.740;-88.000;2023-09-19T07:45:14;99073.46;;;14.77;58.05
45991;BME280;31721;41.740;-88.000;2023-09-19T07:47:44;99075.74;;;14.79;58.26
45991;BME280;31721;41.740;-88.000;2023-09-19T07:50:12;99072.36;;;14.82;58.25
45991;BME280;31721;41.740;-88.000;2023-09-19T07:52:40;99078.96;;;14.82;58.28
45991;BME280;31721;41.740;-88.000;2023-09-19T07:55:08;99082.60;;;14.98;58.18
45991;BME280;31721;41.740;-88.000;2023-09-19T07:57:36;99083.97;;;14.82;58.12
45991;BME280;31721;41.740;-88.000;2023-09-19T08:00:05;99087.19;;;14.82;58.16
45991;BME280;31721;41.740;-88.000;2023-09-19T08:02:35;99091.07;;;14.71;58.08
45991;BME280;31721;41.740;-88.000;2023-09-19T08:05:02;99087.42;;;14.78;58.04
45991;BME280;31721;41.740;-88.000;2023-09-19T08:07:30;99090.87;;;14.78;58.00
45991;BME280;31721;41.740;-88.000;2023-09-19T08:09:58;99092.57;;;14.77;58.09
45991;BME280;31721;41.740;-88.000;2023-09-19T08:12:26;99090.61;;;14.68;58.17
45991;BME280;31721;41.740;-88.000;2023-09-19T08:14:54;99091.00;;;14.65;58.28
45991;BME280;31721;41.740;-88.000;2023-09-19T08:17:22;99090.32;;;14.75;58.16
45991;BME280;31721;41.740;-88.000;2023-09-19T08:19:50;99087.04;;;14.75;58.35
45991;BME280;31721;41.740;-88.000;2023-09-19T08:22:18;99088.05;;;14.74;58.19
45991;BME280;31721;41.740;-88.000;2023-09-19T08:24:46;99084.75;;;14.74;58.43
45991;BME280;31721;41.740;-88.000;2023-09-19T08:27:14;99085.21;;;14.77;58.32
45991;BME280;31721;41.740;-88.000;2023-09-19T08:29:41;99080.52;;;14.72;58.37
45991;BME280;31721;41.740;-88.000;2023-09-19T08:32:09;99078.62;;;14.78;58.17
45991;BME280;31721;41.740;-88.000;2023-09-19T08:34:37;99079.58;;;14.76;58.33
45991;BME280;31721;41.740;-88.000;2023-09-19T08:37:05;99077.31;;;14.75;58.16
45991;BME280;31721;41.740;-88.000;2023-09-19T08:39:33;99076.49;;;14.74;58.27
45991;BME280;31721;41.740;-88.000;2023-09-19T08:42:02;99074.22;;;14.69;58.37
45991;BME280;31721;41.740;-88.000;2023-09-19T08:44:29;99070.47;;;14.68;58.57
45991;BME280;31721;41.740;-88.000;2023-09-19T08:47:02;99070.71;;;14.66;58.69
45991;BME280;31721;41.740;-88.000;2023-09-19T08:49:39;99070.01;;;14.67;58.52
45991;BME280;31721;41.740;-88.000;2023-09-19T08:52:16;99067.80;;;14.69;58.61
45991;BME280;31721;41.740;-88.000;2023-09-19T08:54:48;99063.21;;;14.65;58.66
45991;BME280;31721;41.740;-88.000;2023-09-19T08:57:18;99063.38;;;14.64;58.70
45991;BME280;31721;41.740;-88.000;2023-09-19T08:59:48;99057.87;;;14.78;58.62
45991;BME280;31721;41.740;-88.000;2023-09-19T09:02:16;99056.57;;;14.64;58.81
45991;BME280;31721;41.740;-88.000;2023-09-19T09:04:45;99059.42;;;14.62;58.82
45991;BME280;31721;41.740;-88.000;2023-09-19T09:07:14;99054.38;;;14.62;58.95
45991;BME280;31721;41.740;-88.000;2023-09-19T09:09:41;99055.44;;;14.65;58.85
45991;BME280;31721;41.740;-88.000;2023-09-19T09:12:11;99055.14;;;14.66;58.91
45991;BME280;31721;41.740;-88.000;2023-09-19T09:14:39;99056.67;;;14.66;58.89
45991;BME280;31721;41.740;-88.000;2023-09-19T09:17:07;99054.36;;;14.60;58.92
45991;BME280;31721;41.740;-88.000;2023-09-19T09:19:35;99051.45;;;14.70;58.85
45991;BME280;31721;41.740;-88.000;2023-09-19T09:22:07;99046.87;;;14.68;58.96
45991;BME280;31721;41.740;-88.000;2023-09-19T09:24:35;99042.48;;;14.67;59.13
45991;BME280;31721;41.740;-88.000;2023-09-19T09:27:04;99034.26;;;14.74;59.19
45991;BME280;31721;41.740;-88.000;2023-09-19T09:29:48;99035.61;;;14.71;59.28
45991;BME280;31721;41.740;-88.000;2023-09-19T09:32:19;99033.75;;;14.72;59.20
45991;BME280;31721;41.740;-88.000;2023-09-19T09:34:49;99031.98;;;14.74;59.17
45991;BME280;31721;41.740;-88.000;2023-09-19T09:37:17;99034.56;;;14.75;59.23
45991;BME280;31721;41.740;-88.000;2023-09-19T09:39:53;99034.60;;;14.79;59.21
45991;BME280;31721;41.740;-88.000;2023-09-19T09:42:30;99034.70;;;14.82;59.06
45991;BME280;31721;41.740;-88.000;2023-09-19T09:45:14;99032.52;;;14.93;58.49
45991;BME280;31721;41.740;-88.000;2023-09-19T09:47:43;99035.88;;;14.96;58.38
45991;BME280;31721;41.740;-88.000;2023-09-19T09:50:11;99034.32;;;14.92;58.59
45991;BME280;31721;41.740;-88.000;2023-09-19T09:52:46;99033.75;;;15.00;58.05
45991;BME280;31721;41.740;-88.000;2023-09-19T09:55:13;99032.72;;;14.92;57.98
45991;BME280;31721;41.740;-88.000;2023-09-19T09:57:41;99031.31;;;15.00;58.03
45991;BME280;31721;41.740;-88.000;2023-09-19T10:00:10;99023.77;;;14.87;58.32
45991;BME280;31721;41.740;-88.000;2023-09-19T10:02:38;99021.37;;;14.94;58.55
45991;BME280;31721;41.740;-88.000;2023-09-19T10:05:12;99017.24;;;14.90;58.73
45991;BME280;31721;41.740;-88.000;2023-09-19T10:07:41;99016.04;;;14.94;58.82
45991;BME280;31721;41.740;-88.000;2023-09-19T10:10:09;99022.93;;;14.87;58.76
45991;BME280;31721;41.740;-88.000;2023-09-19T10:12:40;99027.01;;;14.93;58.64
45991;BME280;31721;41.740;-88.000;2023-09-19T10:15:11;99028.92;;;14.94;58.60
45991;BME280;31721;41.740;-88.000;2023-09-19T10:17:41;99026.85;;;14.96;58.83
45991;BME280;31721;41.740;-88.000;2023-09-19T10:20:12;99031.98;;;15.06;58.54
45991;BME280;31721;41.740;-88.000;2023-09-19T10:22:40;99035.67;;;15.08;58.71
45991;BME280;31721;41.740;-88.000;2023-09-19T10:25:09;99041.88;;;15.14;58.74
45991;BME280;31721;41.740;-88.000;2023-09-19T10:27:37;99040.16;;;15.06;58.86
45991;BME280;31721;41.740;-88.000;2023-09-19T10:30:08;99042.97;;;15.16;59.04
45991;BME280;31721;41.740;-88.000;2023-09-19T10:32:40;99047.73;;;15.07;59.16
45991;BME280;31721;41.740;-88.000;2023-09-19T10:35:11;99050.61;;;15.16;59.25
45991;BME280;31721;41.740;-88.000;2023-09-19T10:37:39;99051.60;;;15.15;59.34
45991;BME280;31721;41.740;-88.000;2023-09-19T10:40:08;99051.39;;;15.08;59.56
45991;BME280;31721;41.740;-88.000;2023-09-19T10:42:38;99048.09;;;15.17;59.83
45991;BME280;31721;41.740;-88.000;2023-09-19T10:45:09;99052.54;;;15.08;59.84
45991;BME280;31721;41.740;-88.000;2023-09-19T10:47:39;99046.43;;;15.05;60.08
45991;BME280;31721;41.740;-88.000;2023-09-19T10:50:07;99033.72;;;15.12;60.03
45991;BME280;31721;41.740;-88.000;2023-09-19T10:52:40;99035.15;;;15.15;60.16
45991;BME280;31721;41.740;-88.000;2023-09-19T10:55:09;99043.11;;;15.29;59.96
45991;BME280;31721;41.740;-88.000;2023-09-19T10:57:44;99053.30;;;15.28;59.97
45991;BME280;31721;41.740;-88.000;2023-09-19T11:00:14;99064.23;;;15.18;59.52
45991;BME280;31721;41.740;-88.000;2023-09-19T11:02:42;99079.18;;;15.27;59.62
45991;BME280;31721;41.740;-88.000;2023-09-19T11:05:14;99086.51;;;15.20;59.59
45991;BME280;31721;41.740;-88.000;2023-09-19T11:08:09;99090.08;;;15.09;59.75
45991;BME280;31721;41.740;-88.000;2023-09-19T11:10:51;99097.00;;;15.00;60.12
45991;BME280;31721;41.740;-88.000;2023-09-19T11:13:24;99099.99;;;15.18;60.11
45991;BME280;31721;41.740;-88.000;2023-09-19T11:16:05;99100.88;;;15.17;60.31
45991;BME280;31721;41.740;-88.000;2023-09-19T11:19:05;99105.45;;;15.23;60.37
45991;BME280;31721;41.740;-88.000;2023-09-19T11:21:52;99098.73;;;15.25;60.25
45991;BME280;31721;41.740;-88.000;2023-09-19T11:24:29;99090.07;;;15.42;59.57
45991;BME280;31721;41.740;-88.000;2023-09-19T11:27:11;99086.17;;;15.50;59.46
45991;BME280;31721;41.740;-88.000;2023-09-19T11:29:40;99086.78;;;15.50;59.20
45991;BME280;31721;41.740;-88.000;2023-09-19T11:32:08;99084.55;;;15.49;58.52
45991;BME280;31721;41.740;-88.000;2023-09-19T11:34:51;99082.74;;;15.56;58.50
45991;BME280;31721;41.740;-88.000;2023-09-19T11:38:02;99076.99;;;15.56;58.65
45991;BME280;31721;41.740;-88.000;2023-09-19T11:40:30;99072.32;;;15.47;58.10
45991;BME280;31721;41.740;-88.000;2023-09-19T11:42:58;99079.10;;;15.42;58.22
45991;BME280;31721;41.740;-88.000;2023-09-19T11:46:32;99081.69;;;15.37;57.98
45991;BME280;31721;41.740;-88.000;2023-09-19T11:49:06;99080.04;;;15.15;58.25
45991;BME280;31721;41.740;-88.000;2023-09-19T11:51:40;99076.95;;;15.30;58.00
45991;BME280;31721;41.740;-88.000;2023-09-19T11:54:11;99076.66;;;15.28;58.23
45991;BME280;31721;41.740;-88.000;2023-09-19T11:56:39;99074.24;;;15.16;57.93
45991;BME280;31721;41.740;-88.000;2023-09-19T11:59:07;99069.47;;;15.07;57.99
45991;BME280;31721;41.740;-88.000;2023-09-19T12:01:35;99066.88;;;15.06;58.26
45991;BME280;31721;41.740;-88.000;2023-09-19T12:04:05;99066.68;;;14.99;58.21
45991;BME280;31721;41.740;-88.000;2023-09-19T12:06:34;99067.98;;;15.04;58.29
45991;BME280;31721;41.740;-88.000;2023-09-19T12:09:02;99072.98;;;15.13;58.26
45991;BME280;31721;41.740;-88.000;2023-09-19T12:11:31;99077.07;;;15.24;57.71
45991;BME280;31721;41.740;-88.000;2023-09-19T12:13:59;99084.04;;;15.28;57.24
45991;BME280;31721;41.740;-88.000;2023-09-19T12:16:27;99087.24;;;15.20;57.56
45991;BME280;31721;41.740;-88.000;2023-09-19T12:18:56;99085.21;;;15.22;57.72
45991;BME280;31721;41.740;-88.000;2023-09-19T12:21:31;99085.50;;;15.40;58.38
45991;BME280;31721;41.740;-88.000;2023-09-19T12:24:11;99093.22;;;15.21;58.19
45991;BME280;31721;41.740;-88.000;2023-09-19T12:26:40;99103.02;;;15.51;57.13
45991;BME280;31721;41.740;-88.000;2023-09-19T12:29:13;99111.67;;;15.41;57.62
45991;BME280;31721;41.740;-88.000;2023-09-19T12:31:55;99120.84;;;15.23;58.00
45991;BME280;31721;41.740;-88.000;2023-09-19T12:34:23;99130.19;;;15.45;57.90
45991;BME280;31721;41.740;-88.000;2023-09-19T12:37:04;99143.61;;;15.38;58.10
45991;BME280;31721;41.740;-88.000;2023-09-19T12:39:32;99152.95;;;15.50;58.10
45991;BME280;31721;41.740;-88.000;2023-09-19T12:42:00;99158.18;;;15.53;57.77
45991;BME280;31721;41.740;-88.000;2023-09-19T12:44:27;99158.37;;;15.43;57.91
45991;BME280;31721;41.740;-88.000;2023-09-19T12:46:56;99164.01;;;15.36;58.04
45991;BME280;31721;41.740;-88.000;2023-09-19T12:49:24;99177.24;;;15.53;58.23
45991;BME280;31721;41.740;-88.000;2023-09-19T12:51:55;99175.81;;;15.36;58.22
45991;BME280;31721;41.740;-88.000;2023-09-19T12:54:23;99170.48;;;15.42;58.49